Time;durP1;ratioP1;P1;durP2;ratioP2;P2;SDS_P1;SDS_P2;PMS_P1;PMS_P2;Temp;Humidity;BMP_temperature;BMP_pressure;BME280_temperature;BME280_humidity;BME280_pressure;Samples;Min_cycle;Max_cycle;Signal;HPM_P1;HPM_P2
2022/04/28 00:02:24;;;;;;;52.17;26.10;;;5.50;67.50;;;;;;4958447;28;46569;-64
2022/04/28 00:04:50;;;;;;;47.53;23.93;;;5.60;67.70;;;;;;4960155;28;46807;-64
2022/04/28 00:07:16;;;;;;;45.77;23.77;;;5.50;67.80;;;;;;4959500;28;47982;-64
2022/04/28 00:09:41;;;;;;;49.93;23.97;;;5.60;68.00;;;;;;4959154;28;46424;-65
2022/04/28 00:12:10;;;;;;;51.93;24.47;;;5.60;68.20;;;;;;4959046;28;46401;-64
2022/04/28 00:14:36;;;;;;;53.73;26.50;;;5.60;68.50;;;;;;4955627;28;46435;-64
2022/04/28 00:17:02;;;;;;;48.73;25.00;;;5.60;68.80;;;;;;4959072;28;47842;-64
2022/04/28 00:19:28;;;;;;;53.70;25.60;;;5.60;68.90;;;;;;4959255;28;46326;-65
2022/04/28 00:21:54;;;;;;;53.27;26.80;;;5.70;69.20;;;;;;4960026;28;46361;-65
2022/04/28 00:24:19;;;;;;;51.00;24.63;;;5.70;69.40;;;;;;4961396;28;46775;-64
2022/04/28 00:26:45;;;;;;;47.13;23.57;;;5.60;69.70;;;;;;4959086;28;47851;-63
2022/04/28 00:29:11;;;;;;;54.93;23.67;;;5.60;69.90;;;;;;4958545;28;46509;-64
2022/04/28 00:31:36;;;;;;;45.70;23.50;;;5.60;70.00;;;;;;4959984;28;46443;-65
2022/04/28 00:34:03;;;;;;;43.33;25.13;;;5.60;70.00;;;;;;4959335;28;46525;-65
2022/04/28 00:36:29;;;;;;;60.43;28.87;;;5.60;70.10;;;;;;4959455;28;48658;-65
2022/04/28 00:38:55;;;;;;;47.23;25.13;;;5.60;70.30;;;;;;4958946;28;46274;-65
2022/04/28 00:41:20;;;;;;;50.70;24.77;;;5.60;70.40;;;;;;4958588;28;46516;-64
2022/04/28 00:43:53;;;;;;;45.60;24.20;;;5.60;70.50;;;;;;4963345;28;46376;-64
2022/04/28 00:46:20;;;;;;;51.17;26.10;;;5.50;70.40;;;;;;4961031;28;48136;-64
2022/04/28 00:51:32;;;;;;;54.27;26.23;;;5.40;70.50;;;;;;4963100;28;46352;-64
2022/04/28 00:54:02;;;;;;;49.50;23.73;;;5.40;70.50;;;;;;4961638;28;46724;-64
2022/04/28 00:56:30;;;;;;;32.97;19.00;;;5.40;70.60;;;;;;4961169;28;46596;-64
2022/04/28 00:58:58;;;;;;;24.53;15.43;;;5.30;70.50;;;;;;4960910;28;46628;-64
2022/04/28 01:01:24;;;;;;;22.77;13.57;;;5.20;70.50;;;;;;4962465;28;46330;-64
2022/04/28 01:03:50;;;;;;;21.47;13.07;;;5.10;70.80;;;;;;4962484;28;46432;-64
2022/04/28 01:06:16;;;;;;;20.17;11.30;;;4.90;70.90;;;;;;4963155;28;46418;-63
2022/04/28 01:08:42;;;;;;;18.60;11.57;;;4.80;71.00;;;;;;4962000;28;46512;-64
2022/04/28 01:11:08;;;;;;;17.73;11.13;;;4.70;71.00;;;;;;4962004;28;46430;-64
2022/04/28 01:13:34;;;;;;;18.63;11.07;;;4.70;71.00;;;;;;4962124;28;45912;-65
2022/04/28 01:16:01;;;;;;;20.47;11.97;;;4.60;70.80;;;;;;4961998;28;48137;-63
2022/04/28 01:18:26;;;;;;;20.80;12.20;;;4.60;70.80;;;;;;4961817;28;46365;-66
2022/04/28 01:20:52;;;;;;;21.97;12.17;;;4.60;70.70;;;;;;4962078;28;46433;-64
2022/04/28 01:23:18;;;;;;;22.70;13.10;;;4.60;70.60;;;;;;4963758;28;46390;-64
2022/04/28 01:25:44;;;;;;;26.17;11.80;;;4.50;70.50;;;;;;4961711;28;48020;-64
2022/04/28 01:28:13;;;;;;;12.27;8.63;;;4.40;70.60;;;;;;4954477;28;46132;-65
2022/04/28 01:30:42;;;;;;;13.30;8.57;;;4.40;70.70;;;;;;4961729;28;45778;-64
2022/04/28 01:33:08;;;;;;;17.40;9.03;;;4.30;70.70;;;;;;4962284;28;46455;-64
2022/04/28 01:35:34;;;;;;;15.07;9.20;;;4.20;70.70;;;;;;4961426;28;48002;-64
2022/04/28 01:37:59;;;;;;;15.87;9.93;;;4.20;70.80;;;;;;4962052;28;46521;-64
2022/04/28 01:40:25;;;;;;;14.77;9.87;;;4.10;70.60;;;;;;4961383;28;46448;-65
2022/04/28 01:42:51;;;;;;;13.30;8.87;;;4.10;70.60;;;;;;4955393;28;46550;-64
2022/04/28 01:45:17;;;;;;;14.93;9.60;;;4.00;70.50;;;;;;4960038;28;47883;-64
2022/04/28 01:47:43;;;;;;;14.83;9.43;;;4.00;70.50;;;;;;4958243;28;46472;-64
2022/04/28 01:50:12;;;;;;;15.50;10.17;;;4.00;70.60;;;;;;4958721;28;46506;-65
2022/04/28 01:55:26;;;;;;;22.37;13.40;;;3.90;70.50;;;;;;4958512;28;46760;-65
2022/04/28 01:57:52;;;;;;;23.45;13.13;;;4.00;70.50;;;;;;4960547;28;46425;-64
2022/04/28 02:00:17;;;;;;;20.23;11.30;;;4.00;70.40;;;;;;4960647;28;46432;-64
2022/04/28 02:02:43;;;;;;;20.20;11.70;;;3.90;70.20;;;;;;4961596;28;46452;-65
2022/04/28 02:05:10;;;;;;;27.05;15.35;;;3.90;70.10;;;;;;4961536;28;47992;-65
2022/04/28 02:07:36;;;;;;;21.45;12.88;;;3.90;70.20;;;;;;4960748;28;45843;-62
2022/04/28 02:10:03;;;;;;;27.57;14.33;;;3.90;70.10;;;;;;4960344;28;46330;-65
2022/04/28 02:12:29;;;;;;;25.77;14.30;;;3.90;70.10;;;;;;4960920;28;46421;-66
2022/04/28 02:14:55;;;;;;;21.63;13.53;;;3.90;70.20;;;;;;4960462;28;47918;-64
2022/04/28 02:17:25;;;;;;;25.27;12.60;;;3.90;70.10;;;;;;4954641;28;46351;-64
2022/04/28 02:19:51;;;;;;;19.35;10.10;;;3.80;70.10;;;;;;4958019;28;46517;-66
2022/04/28 02:22:18;;;;;;;15.70;8.80;;;3.80;70.20;;;;;;4960767;28;46376;-66
2022/04/28 02:24:44;;;;;;;10.73;7.90;;;3.70;70.30;;;;;;4959968;28;48090;-63
2022/04/28 02:27:10;;;;;;;13.57;7.10;;;3.60;70.40;;;;;;4950209;28;46486;-64
2022/04/28 02:29:35;;;;;;;11.53;7.87;;;3.50;70.50;;;;;;4955470;28;46538;-64
2022/04/28 02:32:02;;;;;;;8.40;6.10;;;3.50;70.50;;;;;;4955946;28;46392;-65
2022/04/28 02:34:28;;;;;;;11.37;7.03;;;3.50;70.60;;;;;;4953929;28;48600;-65
2022/04/28 02:36:53;;;;;;;8.80;6.40;;;3.40;70.50;;;;;;4952989;28;46470;-65
2022/04/28 02:39:19;;;;;;;11.20;7.83;;;3.40;70.50;;;;;;4960175;28;46497;-65
2022/04/28 02:41:49;;;;;;;12.13;7.47;;;3.30;70.40;;;;;;4956657;28;46515;-64
2022/04/28 02:44:14;;;;;;;9.80;6.90;;;3.30;70.40;;;;;;4956810;28;47619;-64
2022/04/28 02:46:45;;;;;;;8.87;6.77;;;3.30;70.50;;;;;;4951968;28;46529;-64
2022/04/28 02:49:15;;;;;;;10.77;6.93;;;3.20;70.40;;;;;;4953819;28;45734;-64
2022/04/28 02:51:41;;;;;;;8.90;6.70;;;3.20;70.50;;;;;;4959264;28;46624;-64
2022/04/28 02:54:07;;;;;;;9.13;6.15;;;3.20;70.50;;;;;;4960362;28;48184;-65
2022/04/28 02:56:33;;;;;;;11.60;7.15;;;3.10;70.40;;;;;;4955445;28;46573;-64
2022/04/28 02:58:59;;;;;;;9.90;6.90;;;3.10;70.50;;;;;;4957280;28;46399;-62
2022/04/28 03:01:26;;;;;;;8.60;6.20;;;3.10;70.40;;;;;;4958419;28;46487;-63
2022/04/28 03:03:53;;;;;;;7.45;5.35;;;3.10;70.50;;;;;;4957580;28;47883;-63
2022/04/28 03:11:49;;;;;;;7.30;5.68;;;2.90;70.30;;;;;;4961813;28;46350;-62
2022/04/28 03:14:15;;;;;;;6.30;4.80;;;2.90;70.40;;;;;;4959820;28;46429;-64
2022/04/28 03:16:41;;;;;;;8.13;5.75;;;2.80;70.20;;;;;;4960332;28;46491;-64
2022/04/28 03:19:08;;;;;;;7.90;5.90;;;2.80;70.30;;;;;;4959808;28;46495;-65
2022/04/28 03:21:33;;;;;;;8.68;6.32;;;2.70;70.30;;;;;;4960455;28;46361;-65
2022/04/28 03:23:59;;;;;;;7.03;5.50;;;2.70;70.30;;;;;;4959737;28;46350;-63
2022/04/28 03:26:25;;;;;;;8.37;6.00;;;2.70;70.50;;;;;;4958049;28;46356;-64
2022/04/28 03:28:51;;;;;;;8.30;6.13;;;2.60;70.30;;;;;;4959386;28;46301;-63
2022/04/28 03:31:17;;;;;;;8.50;5.93;;;2.60;70.20;;;;;;4960591;28;46436;-63
2022/04/28 03:33:42;;;;;;;9.80;6.70;;;2.60;70.20;;;;;;4960075;28;48081;-64
2022/04/28 03:38:52;;;;;;;10.18;7.15;;;2.60;70.10;;;;;;4960097;28;46340;-64
2022/04/28 03:41:18;;;;;;;11.50;7.23;;;2.60;70.00;;;;;;4959817;28;46357;-64
2022/04/28 03:43:47;;;;;;;12.60;8.50;;;2.60;69.90;;;;;;4960539;28;47960;-64
2022/04/28 03:46:15;;;;;;;15.95;9.85;;;2.70;70.00;;;;;;4958947;28;46437;-64
2022/04/28 03:48:41;;;;;;;17.02;11.18;;;2.70;69.90;;;;;;4959758;28;46411;-64
2022/04/28 03:51:07;;;;;;;16.58;10.73;;;2.70;69.80;;;;;;4960418;28;46386;-64
2022/04/28 03:53:33;;;;;;;14.53;9.53;;;2.70;69.80;;;;;;4957116;28;47944;-65
2022/04/28 03:55:59;;;;;;;20.97;11.33;;;2.70;69.70;;;;;;4958133;28;46873;-65
2022/04/28 03:58:28;;;;;;;15.88;9.90;;;2.80;69.70;;;;;;4959533;28;45948;-64
2022/04/28 04:00:53;;;;;;;24.75;13.90;;;2.80;70.00;;;;;;4960654;28;46301;-64
2022/04/28 04:03:20;;;;;;;18.70;11.03;;;2.80;70.00;;;;;;4960033;28;48155;-65
2022/04/28 04:05:49;;;;;;;21.10;11.73;;;2.80;70.00;;;;;;4953924;28;45850;-64
2022/04/28 04:08:15;;;;;;;17.50;11.32;;;2.80;70.00;;;;;;4959715;28;46341;-63
2022/04/28 04:10:41;;;;;;;20.42;12.85;;;2.90;70.00;;;;;;4960345;28;46563;-63
2022/04/28 04:13:08;;;;;;;17.50;11.10;;;2.90;70.00;;;;;;4959855;28;48702;-64
2022/04/28 04:15:33;;;;;;;20.33;11.73;;;2.90;70.00;;;;;;4962145;28;46513;-65
2022/04/28 04:18:00;;;;;;;24.90;10.97;;;2.90;70.00;;;;;;4963627;28;46428;-65
2022/04/28 04:20:27;;;;;;;17.57;11.70;;;2.90;69.90;;;;;;4962802;28;46567;-64
2022/04/28 04:22:53;;;;;;;18.55;10.90;;;3.00;69.80;;;;;;4962942;28;48769;-64
2022/04/28 04:25:20;;;;;;;16.23;10.43;;;3.10;69.90;;;;;;4963373;28;46400;-64
2022/04/28 04:27:46;;;;;;;16.65;9.70;;;3.10;69.80;;;;;;4961656;28;46405;-65
2022/04/28 04:32:56;;;;;;;14.60;10.25;;;3.20;69.60;;;;;;4965211;28;46348;-64
2022/04/28 04:35:23;;;;;;;12.67;8.40;;;3.30;69.60;;;;;;4963308;28;45893;-64
2022/04/28 04:37:53;;;;;;;13.10;8.57;;;3.40;69.50;;;;;;4961356;28;46470;-64
2022/04/28 04:40:20;;;;;;;10.10;7.40;;;3.50;69.50;;;;;;4960558;28;46298;-64
2022/04/28 04:42:45;;;;;;;10.80;7.00;;;3.60;69.50;;;;;;4964087;28;46337;-65
2022/04/28 04:45:11;;;;;;;7.30;6.03;;;3.60;69.60;;;;;;4962777;28;46440;-64
2022/04/28 04:47:37;;;;;;;9.00;6.10;;;3.60;69.40;;;;;;4962909;28;46374;-63
2022/04/28 04:50:05;;;;;;;10.70;7.57;;;3.70;69.40;;;;;;4959468;28;46623;-64
2022/04/28 04:52:31;;;;;;;7.30;6.28;;;3.80;69.20;;;;;;4962976;28;46923;-64
2022/04/28 04:54:56;;;;;;;6.90;5.90;;;3.90;69.20;;;;;;4960300;28;46337;-65
2022/04/28 04:57:22;;;;;;;8.93;6.00;;;4.10;69.30;;;;;;4962440;28;46409;-66
2022/04/28 04:59:48;;;;;;;7.77;5.60;;;4.20;69.20;;;;;;4962332;28;46361;-65
2022/04/28 05:02:14;;;;;;;6.20;4.97;;;4.60;69.00;;;;;;4962772;28;48759;-65
2022/04/28 05:04:39;;;;;;;5.90;4.70;;;5.00;69.00;;;;;;4962360;28;46333;-65
2022/04/28 05:07:06;;;;;;;4.83;4.33;;;5.50;69.10;;;;;;4961805;28;46545;-65
2022/04/28 05:09:31;;;;;;;4.57;4.13;;;6.10;69.10;;;;;;4961983;28;46437;-66
2022/04/28 05:11:57;;;;;;;5.20;4.20;;;6.80;68.60;;;;;;4962447;28;48064;-64
2022/04/28 05:14:23;;;;;;;4.10;3.70;;;7.50;67.60;;;;;;4962329;28;46384;-64
2022/04/28 05:16:48;;;;;;;4.77;4.27;;;8.20;66.50;;;;;;4962655;28;46436;-64
2022/04/28 05:19:14;;;;;;;4.57;4.10;;;8.80;65.00;;;;;;4961875;28;46478;-65
2022/04/28 05:21:40;;;;;;;5.20;4.17;;;9.30;64.30;;;;;;4962189;28;47919;-65
2022/04/28 05:24:06;;;;;;;4.37;3.80;;;9.70;62.90;;;;;;4960574;28;46424;-65
2022/04/28 05:26:31;;;;;;;7.20;4.23;;;10.00;61.10;;;;;;4960442;28;46432;-65
2022/04/28 05:28:57;;;;;;;8.37;5.37;;;10.60;60.10;;;;;;4961756;28;46676;-65
2022/04/28 05:31:23;;;;;;;6.70;5.30;;;11.00;59.60;;;;;;4961166;28;48095;-65
2022/04/28 05:33:48;;;;;;;13.63;5.70;;;11.30;59.50;;;;;;4955989;28;46719;-66
2022/04/28 05:36:15;;;;;;;9.23;5.20;;;11.80;58.50;;;;;;4954265;28;46390;-65
2022/04/28 05:38:42;;;;;;;9.80;5.33;;;12.10;58.00;;;;;;4960168;28;46419;-62
2022/04/28 05:41:08;;;;;;;7.50;5.30;;;12.40;57.80;;;;;;4959895;28;46626;-65
2022/04/28 05:46:20;;;;;;;8.53;5.33;;;13.40;55.20;;;;;;4961177;28;46360;-65
2022/04/28 05:48:46;;;;;;;8.70;5.83;;;13.90;54.10;;;;;;4960893;28;46369;-65
2022/04/28 05:51:12;;;;;;;8.60;6.33;;;14.30;52.80;;;;;;4959378;28;46564;-64
2022/04/28 05:53:39;;;;;;;7.60;6.10;;;14.60;51.90;;;;;;4959150;28;46431;-65
2022/04/28 05:56:05;;;;;;;13.50;6.50;;;14.90;50.90;;;;;;4960954;28;46397;-65
2022/04/28 05:58:32;;;;;;;8.77;6.27;;;15.30;49.80;;;;;;4975549;28;45967;-64
2022/04/28 06:00:58;;;;;;;9.53;6.90;;;15.80;48.50;;;;;;4960598;28;47857;-64
2022/04/28 06:03:24;;;;;;;10.43;8.03;;;16.10;47.40;;;;;;4960414;28;46667;-64
2022/04/28 06:05:49;;;;;;;17.70;9.37;;;16.40;46.10;;;;;;4955890;28;46460;-65
2022/04/28 06:08:15;;;;;;;17.73;11.73;;;16.70;44.90;;;;;;4958899;28;46715;-65
2022/04/28 06:10:41;;;;;;;15.07;11.33;;;17.10;44.60;;;;;;4959383;28;46531;-65
2022/04/28 06:13:07;;;;;;;15.87;11.33;;;17.30;43.30;;;;;;4958720;28;46614;-65
2022/04/28 06:15:33;;;;;;;18.13;12.90;;;17.40;42.80;;;;;;4944319;28;46394;-66
2022/04/28 06:17:58;;;;;;;17.90;13.60;;;17.30;43.30;;;;;;4960733;28;46606;-64
2022/04/28 06:20:24;;;;;;;18.73;14.40;;;17.50;42.40;;;;;;4960453;28;47763;-65
2022/04/28 06:22:50;;;;;;;17.60;14.03;;;17.60;41.00;;;;;;4960398;28;46766;-65
2022/04/28 06:25:16;;;;;;;17.60;13.50;;;17.60;39.50;;;;;;4960778;28;46468;-66
2022/04/28 06:27:41;;;;;;;18.30;12.13;;;16.80;39.80;;;;;;4960957;28;46587;-65
2022/04/28 06:30:08;;;;;;;20.23;14.10;;;15.10;43.20;;;;;;4955286;28;48050;-64
2022/04/28 06:32:34;;;;;;;18.97;14.07;;;13.80;45.30;;;;;;4957318;28;46489;-65
2022/04/28 06:34:59;;;;;;;21.30;15.60;;;13.00;46.90;;;;;;4960436;28;46421;-65
2022/04/28 06:37:25;;;;;;;22.93;14.50;;;13.00;46.10;;;;;;4959800;28;46592;-65
2022/04/28 06:39:51;;;;;;;20.47;15.17;;;14.30;41.70;;;;;;4960084;28;47958;-64
2022/04/28 06:42:17;;;;;;;18.23;12.87;;;14.90;38.80;;;;;;4960736;28;46329;-65
2022/04/28 06:44:43;;;;;;;17.47;12.63;;;15.40;37.40;;;;;;4960400;28;46462;-65
2022/04/28 06:47:08;;;;;;;17.20;11.97;;;15.70;36.50;;;;;;4960392;28;46505;-65
2022/04/28 06:49:34;;;;;;;16.77;12.40;;;16.00;35.60;;;;;;4959253;28;47945;-65
2022/04/28 06:52:00;;;;;;;19.47;12.93;;;15.90;35.00;;;;;;4958138;28;46516;-66
2022/04/28 06:54:26;;;;;;;17.83;12.57;;;15.00;38.10;;;;;;4960043;28;46421;-65
2022/04/28 06:56:51;;;;;;;17.70;12.47;;;13.70;41.80;;;;;;4959383;28;46800;-66
2022/04/28 06:59:17;;;;;;;21.90;13.30;;;12.90;44.80;;;;;;4959209;28;47835;-65
2022/04/28 07:01:43;;;;;;;18.23;12.03;;;12.50;46.60;;;;;;4959027;28;46809;-66
2022/04/28 07:04:09;;;;;;;19.67;12.20;;;12.00;48.20;;;;;;4961249;28;46535;-64
2022/04/28 07:06:35;;;;;;;17.90;12.60;;;11.80;49.30;;;;;;4960022;28;46326;-65
2022/04/28 07:09:01;;;;;;;17.20;12.50;;;11.70;50.00;;;;;;4960169;28;47756;-64
2022/04/28 07:11:26;;;;;;;16.03;11.13;;;11.70;50.20;;;;;;4957500;28;46399;-65
2022/04/28 07:13:52;;;;;;;18.60;12.60;;;11.70;50.40;;;;;;4959115;28;46384;-66
2022/04/28 07:16:18;;;;;;;17.77;12.30;;;11.60;50.60;;;;;;4959222;28;46384;-65
2022/04/28 07:18:44;;;;;;;20.13;13.70;;;11.60;50.90;;;;;;4958355;28;46591;-64
2022/04/28 07:21:10;;;;;;;19.10;12.87;;;11.80;51.10;;;;;;4959004;28;46476;-65
2022/04/28 07:23:36;;;;;;;19.87;13.37;;;11.80;51.00;;;;;;4959230;28;46609;-65
2022/04/28 07:26:03;;;;;;;18.30;12.77;;;12.00;51.40;;;;;;4959070;28;45865;-64
2022/04/28 07:28:28;;;;;;;17.33;11.53;;;12.20;51.30;;;;;;4957683;28;46495;-64
2022/04/28 07:30:54;;;;;;;18.57;12.87;;;12.40;51.10;;;;;;4955513;28;46340;-65
2022/04/28 07:33:20;;;;;;;17.40;12.67;;;12.50;51.00;;;;;;4958367;28;46504;-65
2022/04/28 07:35:45;;;;;;;14.70;10.27;;;12.50;50.80;;;;;;4959428;28;46288;-65
2022/04/28 07:38:11;;;;;;;16.17;11.37;;;12.50;50.50;;;;;;4959435;28;47828;-65
2022/04/28 07:40:37;;;;;;;16.67;10.17;;;12.50;50.60;;;;;;4959370;28;46301;-64
2022/04/28 07:43:03;;;;;;;16.10;10.80;;;12.60;50.30;;;;;;4958722;28;46418;-65
2022/04/28 07:45:29;;;;;;;13.83;9.30;;;12.60;50.00;;;;;;4959126;28;46691;-64
2022/04/28 07:47:55;;;;;;;15.80;10.90;;;12.70;50.10;;;;;;4958284;28;48761;-64
2022/04/28 07:50:21;;;;;;;15.13;10.03;;;12.70;49.30;;;;;;4962142;28;46439;-65
2022/04/28 07:52:47;;;;;;;13.73;9.10;;;12.70;49.20;;;;;;4963107;28;46588;-65
2022/04/28 07:55:13;;;;;;;12.60;8.90;;;12.80;49.20;;;;;;4961598;28;45857;-65
2022/04/28 07:57:39;;;;;;;12.30;8.47;;;13.00;48.80;;;;;;4956573;28;46474;-64
2022/04/28 08:00:06;;;;;;;11.07;8.33;;;13.20;48.20;;;;;;4958678;28;46528;-65
2022/04/28 08:02:33;;;;;;;17.30;9.73;;;13.30;47.20;;;;;;4945285;28;46385;-65
2022/04/28 08:04:59;;;;;;;15.30;10.07;;;13.40;46.70;;;;;;4962211;28;46580;-65
2022/04/28 08:07:25;;;;;;;17.87;10.10;;;13.50;46.10;;;;;;4960976;28;48716;-66
2022/04/28 08:09:51;;;;;;;15.60;9.40;;;13.40;45.10;;;;;;4961074;28;46106;-65
2022/04/28 08:12:17;;;;;;;13.80;9.07;;;13.50;45.60;;;;;;4961627;28;46417;-66
2022/04/28 08:14:43;;;;;;;12.97;8.80;;;13.60;45.30;;;;;;4960730;28;45933;-66
2022/04/28 08:17:09;;;;;;;11.20;7.77;;;13.70;44.50;;;;;;4961313;28;48704;-65
2022/04/28 08:19:35;;;;;;;11.67;7.37;;;13.80;44.50;;;;;;4963636;28;46438;-65
2022/04/28 08:22:01;;;;;;;10.70;7.17;;;13.90;43.20;;;;;;4961778;28;46445;-62
2022/04/28 08:24:27;;;;;;;13.10;7.73;;;13.90;42.50;;;;;;4961928;28;46380;-65
2022/04/28 08:26:54;;;;;;;12.37;7.93;;;14.00;42.20;;;;;;4960880;28;48664;-64
2022/04/28 08:29:21;;;;;;;12.47;7.37;;;14.10;42.20;;;;;;4960232;28;46424;-65
2022/04/28 08:31:47;;;;;;;14.40;8.60;;;14.20;42.30;;;;;;4958911;28;46384;-64
2022/04/28 08:34:14;;;;;;;10.00;6.60;;;14.30;42.10;;;;;;4960792;28;46364;-64
2022/04/28 08:36:41;;;;;;;9.73;6.70;;;14.30;41.50;;;;;;4961753;28;46597;-65
2022/04/28 08:39:07;;;;;;;9.80;6.80;;;14.20;39.90;;;;;;4959896;28;46947;-65
2022/04/28 08:41:47;;;;;;;8.77;6.47;;;14.10;37.60;;;;;;4961561;28;46364;-65
2022/04/28 08:44:22;;;;;;;10.00;6.63;;;14.30;37.70;;;;;;4961742;28;46496;-66
2022/04/28 08:46:51;;;;;;;10.00;6.53;;;14.30;37.60;;;;;;4960664;28;47831;-65
2022/04/28 08:49:23;;;;;;;10.27;6.27;;;14.40;37.40;;;;;;4960650;28;46539;-64
2022/04/28 08:51:56;;;;;;;11.10;6.70;;;14.40;37.10;;;;;;4960260;28;46541;-65
2022/04/28 08:54:25;;;;;;;13.53;7.40;;;14.50;36.80;;;;;;4958320;28;46393;-64
2022/04/28 08:56:52;;;;;;;17.70;8.60;;;14.50;37.50;;;;;;4960849;28;48071;-64
2022/04/28 08:59:19;;;;;;;10.43;7.43;;;14.60;37.70;;;;;;4961040;28;46555;-64
2022/04/28 09:01:45;;;;;;;11.10;7.43;;;14.70;37.20;;;;;;4960471;28;46658;-64
2022/04/28 09:04:11;;;;;;;14.87;6.87;;;14.80;37.40;;;;;;4960951;28;46388;-66
2022/04/28 09:06:40;;;;;;;11.83;6.60;;;14.90;37.10;;;;;;4960982;28;47979;-65
2022/04/28 09:09:10;;;;;;;16.97;7.30;;;14.80;35.50;;;;;;4960738;28;46695;-65
2022/04/28 09:11:40;;;;;;;9.67;6.90;;;14.80;35.00;;;;;;4959600;28;46470;-65
2022/04/28 09:14:10;;;;;;;9.73;6.40;;;14.80;34.90;;;;;;4961929;28;46480;-65
2022/04/28 09:16:45;;;;;;;10.20;6.80;;;14.90;34.60;;;;;;4960641;28;47805;-65
2022/04/28 09:19:25;;;;;;;10.20;7.30;;;15.00;34.10;;;;;;4960182;28;46357;-65
2022/04/28 09:21:53;;;;;;;10.43;6.23;;;15.00;32.40;;;;;;4959818;28;46451;-65
2022/04/28 09:24:21;;;;;;;9.70;7.47;;;15.10;32.90;;;;;;4961088;28;46498;-65
2022/04/28 09:26:53;;;;;;;8.37;5.90;;;15.30;33.40;;;;;;4960459;28;47719;-65
2022/04/28 09:29:20;;;;;;;9.43;5.87;;;15.30;32.20;;;;;;4957764;28;46358;-64
2022/04/28 09:31:48;;;;;;;9.13;5.83;;;15.30;32.10;;;;;;4961090;28;46478;-65
2022/04/28 09:34:16;;;;;;;9.77;6.60;;;15.50;31.60;;;;;;4961906;28;46408;-65
2022/04/28 09:36:43;;;;;;;8.47;5.60;;;15.50;30.80;;;;;;4960331;28;47939;-64
2022/04/28 09:42:31;;;;;;;9.50;5.13;;;15.40;29.70;;;;;;4963455;28;46432;-66
2022/04/28 09:45:00;;;;;;;8.80;5.00;;;15.30;28.10;;;;;;4960748;28;46560;-65
2022/04/28 09:47:27;;;;;;;8.40;5.93;;;15.30;28.00;;;;;;4957252;28;48656;-65
2022/04/28 09:49:55;;;;;;;7.30;4.70;;;15.30;28.40;;;;;;4957637;28;46455;-65
2022/04/28 09:52:32;;;;;;;12.00;5.63;;;15.30;28.50;;;;;;4960315;28;46308;-64
2022/04/28 09:55:00;;;;;;;8.10;4.80;;;15.40;27.40;;;;;;4960066;28;45998;-65
2022/04/28 09:57:27;;;;;;;6.73;4.80;;;15.60;26.30;;;;;;4959359;28;47762;-64
2022/04/28 09:59:55;;;;;;;6.70;4.83;;;15.80;25.90;;;;;;4956976;28;46521;-65
2022/04/28 10:02:28;;;;;;;10.13;6.30;;;16.00;26.00;;;;;;4961104;28;46473;-65
2022/04/28 10:04:55;;;;;;;9.10;5.37;;;16.30;26.60;;;;;;4958269;28;46524;-65
2022/04/28 10:07:22;;;;;;;8.73;5.27;;;16.50;26.40;;;;;;4958386;28;47793;-64
2022/04/28 10:09:51;;;;;;;7.60;4.50;;;16.50;26.10;;;;;;4959790;28;46337;-65
2022/04/28 10:12:22;;;;;;;9.40;4.90;;;16.50;25.50;;;;;;4959441;28;46594;-64
2022/04/28 10:14:49;;;;;;;9.57;5.93;;;16.50;24.40;;;;;;4960982;28;46521;-65
2022/04/28 10:17:24;;;;;;;8.43;5.70;;;16.70;24.20;;;;;;4959187;28;48265;-65
2022/04/28 10:20:05;;;;;;;9.87;5.40;;;16.80;23.50;;;;;;4961175;28;45906;-65
2022/04/28 10:22:36;;;;;;;7.47;4.47;;;16.60;22.60;;;;;;4958943;28;46408;-65
2022/04/28 10:33:26;;;;;;;11.23;5.60;;;16.20;22.40;;;;;;4961343;28;46640;-66
2022/04/28 10:35:54;;;;;;;9.53;6.77;;;16.10;23.20;;;;;;4960276;28;46486;-65
2022/04/28 10:38:31;;;;;;;8.87;5.30;;;16.20;23.60;;;;;;4957434;28;47942;-66
2022/04/28 10:41:00;;;;;;;8.83;5.60;;;16.30;23.30;;;;;;4959857;28;46308;-65
2022/04/28 10:43:32;;;;;;;10.13;6.00;;;16.50;22.30;;;;;;4959976;28;46424;-65
2022/04/28 10:46:22;;;;;;;7.70;5.47;;;16.50;23.20;;;;;;4960109;28;45953;-66
2022/04/28 10:48:52;;;;;;;10.40;5.97;;;16.40;22.50;;;;;;4959227;28;48061;-64
2022/04/28 10:51:23;;;;;;;10.40;5.80;;;16.80;22.70;;;;;;4975149;28;46364;-66
2022/04/28 10:54:09;;;;;;;9.33;6.50;;;17.10;22.40;;;;;;4958693;28;45908;-65
2022/04/28 10:56:44;;;;;;;8.83;5.70;;;17.00;21.70;;;;;;4958847;28;46638;-65
2022/04/28 10:59:34;;;;;;;9.47;5.30;;;17.00;21.30;;;;;;4960953;28;47976;-65
2022/04/28 11:02:15;;;;;;;8.73;5.90;;;16.90;21.10;;;;;;4958952;28;46757;-64
2022/04/28 11:04:43;;;;;;;8.57;5.70;;;16.80;20.90;;;;;;4959663;28;46361;-65
2022/04/28 11:07:16;;;;;;;15.00;6.57;;;16.70;21.40;;;;;;4959265;28;46734;-65
2022/04/28 11:09:44;;;;;;;8.70;6.50;;;16.60;21.10;;;;;;4960027;28;47251;-62
2022/04/28 11:12:17;;;;;;;9.20;6.10;;;16.70;21.20;;;;;;4953669;28;46263;-65
2022/04/28 11:14:59;;;;;;;12.03;6.30;;;17.00;21.50;;;;;;4958717;28;45924;-66
2022/04/28 11:17:28;;;;;;;9.13;5.30;;;16.90;21.00;;;;;;4956736;28;46476;-65
2022/04/28 11:19:54;;;;;;;10.27;6.27;;;16.80;21.20;;;;;;4960359;28;46725;-64
2022/04/28 11:22:20;;;;;;;8.90;6.07;;;16.80;21.40;;;;;;4958027;28;46782;-65
2022/04/28 11:24:47;;;;;;;8.83;6.00;;;17.10;22.60;;;;;;4958026;28;46431;-65
2022/04/28 11:27:21;;;;;;;7.30;5.00;;;17.20;20.50;;;;;;4959024;28;46527;-65
2022/04/28 11:29:49;;;;;;;10.33;5.33;;;17.10;20.80;;;;;;4955037;28;47836;-64
2022/04/28 11:32:16;;;;;;;7.87;5.40;;;17.20;20.50;;;;;;4959016;28;46427;-65
2022/04/28 11:34:44;;;;;;;11.67;6.27;;;17.20;20.70;;;;;;4956656;28;46493;-65
2022/04/28 11:37:37;;;;;;;9.33;4.90;;;17.30;20.60;;;;;;4956611;28;46022;-64
2022/04/28 11:40:11;;;;;;;8.23;5.73;;;17.20;20.50;;;;;;4952144;28;48921;-65
2022/04/28 11:42:37;;;;;;;9.43;5.93;;;17.10;20.00;;;;;;4957734;28;46583;-63
2022/04/28 11:45:03;;;;;;;8.73;5.97;;;17.00;20.30;;;;;;4960586;28;46592;-63
2022/04/28 11:47:30;;;;;;;9.40;5.60;;;17.10;20.40;;;;;;4958244;28;46429;-65
2022/04/28 11:50:04;;;;;;;9.83;5.93;;;17.10;20.40;;;;;;4956592;28;47932;-65
2022/04/28 11:52:31;;;;;;;7.87;5.37;;;17.10;20.50;;;;;;4958794;28;46526;-65
2022/04/28 11:55:00;;;;;;;10.43;6.30;;;17.20;20.50;;;;;;4958130;28;46711;-65
2022/04/28 11:57:27;;;;;;;7.80;5.57;;;17.20;20.50;;;;;;4958366;28;46156;-65
2022/04/28 11:59:53;;;;;;;9.17;5.07;;;17.20;20.50;;;;;;4956257;28;47362;-65
2022/04/28 12:02:29;;;;;;;8.00;5.57;;;17.00;20.30;;;;;;4957751;28;46446;-65
2022/04/28 12:05:00;;;;;;;16.00;6.03;;;16.90;20.20;;;;;;4957599;28;46419;-64
2022/04/28 12:07:31;;;;;;;9.97;5.50;;;16.90;20.20;;;;;;4962162;28;45987;-64
2022/04/28 12:15:26;;;;;;;8.40;5.20;;;16.90;19.60;;;;;;4961666;28;46396;-65
2022/04/28 12:21:00;;;;;;;12.63;5.27;;;17.10;20.30;;;;;;4961432;28;46347;-64
2022/04/28 12:23:28;;;;;;;7.67;5.30;;;17.10;19.10;;;;;;4958927;28;46587;-65
2022/04/28 12:25:58;;;;;;;9.70;5.43;;;17.00;19.10;;;;;;4959884;28;46358;-65
2022/04/28 12:28:32;;;;;;;8.30;5.00;;;17.00;19.40;;;;;;4955889;28;46569;-63
2022/04/28 12:30:57;;;;;;;9.43;5.80;;;17.20;19.80;;;;;;4951721;28;47182;-65
2022/04/28 12:33:25;;;;;;;7.47;4.80;;;17.20;19.10;;;;;;4958951;28;46428;-65
2022/04/28 12:35:51;;;;;;;9.30;5.90;;;17.20;19.00;;;;;;4960817;28;46512;-65
2022/04/28 12:38:26;;;;;;;11.03;5.40;;;17.10;18.60;;;;;;4962902;28;46549;-65
2022/04/28 12:40:52;;;;;;;7.73;5.20;;;17.30;19.10;;;;;;4962085;28;47947;-65
2022/04/28 12:43:38;;;;;;;9.03;5.93;;;17.30;18.80;;;;;;4962867;28;46388;-65
2022/04/28 12:46:06;;;;;;;10.77;5.97;;;17.30;19.40;;;;;;4961797;28;46832;-66
2022/04/28 12:48:39;;;;;;;14.07;6.00;;;17.20;20.30;;;;;;4961568;28;46575;-66
2022/04/28 12:51:10;;;;;;;7.50;5.47;;;17.40;20.30;;;;;;4962641;28;48935;-64
2022/04/28 12:53:37;;;;;;;7.47;5.13;;;17.30;19.50;;;;;;4959188;28;46378;-66
2022/04/28 12:56:08;;;;;;;9.27;5.23;;;17.20;20.00;;;;;;4962230;28;46562;-65
2022/04/28 12:58:42;;;;;;;9.57;5.80;;;17.30;19.20;;;;;;4962225;28;45953;-65
2022/04/28 13:01:19;;;;;;;6.93;4.63;;;17.40;19.40;;;;;;4961991;28;47774;-64
2022/04/28 13:03:54;;;;;;;8.50;5.80;;;17.50;19.70;;;;;;4962304;28;46711;-65
2022/04/28 13:06:21;;;;;;;10.93;6.33;;;17.50;19.30;;;;;;4961893;28;45802;-65
2022/04/28 13:08:51;;;;;;;7.50;4.93;;;17.40;18.70;;;;;;4961335;28;46367;-65
2022/04/28 13:11:22;;;;;;;8.87;5.30;;;17.30;18.80;;;;;;4962381;28;47784;-65
2022/04/28 13:13:48;;;;;;;7.47;4.87;;;17.30;18.70;;;;;;4962493;28;46448;-66
2022/04/28 13:16:14;;;;;;;10.77;5.70;;;17.30;18.20;;;;;;4961979;28;46499;-65
2022/04/28 13:18:40;;;;;;;11.10;5.33;;;17.10;18.60;;;;;;4961562;28;46485;-65
2022/04/28 13:21:07;;;;;;;7.40;4.80;;;17.20;19.30;;;;;;4962071;28;48199;-65
2022/04/28 13:23:33;;;;;;;17.20;6.00;;;17.30;19.40;;;;;;4961928;28;46472;-67